sensor_id;sensor_type;location;lat;lon;timestamp;P1;durP1;ratioP1;P2;durP2;ratioP2
21448;SDS011;10885;52.830;13.788;2022-07-06T03:14:03;3.13;;;1.25;;
21448;SDS011;10885;52.830;13.788;2022-07-06T03:19:09;3.20;;;1.50;;
21448;SDS011;10885;52.830;13.788;2022-07-06T03:24:11;4.50;;;1.10;;
21448;SDS011;10885;52.830;13.788;2022-07-06T03:29:14;3.28;;;1.35;;
21448;SDS011;10885;52.830;13.788;2022-07-06T03:34:17;4.75;;;1.50;;
21448;SDS011;10885;52.830;13.788;2022-07-06T03:39:19;4.00;;;1.10;;
21448;SDS011;10885;52.830;13.788;2022-07-06T03:44:22;4.88;;;1.30;;
21448;SDS011;10885;52.830;13.788;2022-07-06T18:24:59;1.05;;;0.35;;
21448;SDS011;10885;52.830;13.788;2022-07-06T18:30:02;2.38;;;0.50;;
21448;SDS011;10885;52.830;13.788;2022-07-06T18:35:06;2.08;;;0.60;;
21448;SDS011;10885;52.830;13.788;2022-07-06T18:40:09;1.08;;;0.50;;
21448;SDS011;10885;52.830;13.788;2022-07-06T18:45:11;3.78;;;0.90;;
21448;SDS011;10885;52.830;13.788;2022-07-06T18:50:15;1.55;;;0.70;;
21448;SDS011;10885;52.830;13.788;2022-07-06T18:55:18;1.45;;;0.50;;
21448;SDS011;10885;52.830;13.788;2022-07-06T19:00:20;0.47;;;0.40;;
21448;SDS011;10885;52.830;13.788;2022-07-06T19:05:23;2.40;;;0.50;;
21448;SDS011;10885;52.830;13.788;2022-07-06T19:10:26;2.05;;;0.55;;
21448;SDS011;10885;52.830;13.788;2022-07-06T19:15:28;1.85;;;0.95;;
21448;SDS011;10885;52.830;13.788;2022-07-06T19:20:31;1.13;;;0.40;;
21448;SDS011;10885;52.830;13.788;2022-07-06T19:25:33;2.45;;;0.60;;
21448;SDS011;10885;52.830;13.788;2022-07-06T19:30:36;2.10;;;0.60;;
21448;SDS011;10885;52.830;13.788;2022-07-06T19:35:38;2.63;;;0.50;;
21448;SDS011;10885;52.830;13.788;2022-07-06T19:40:40;1.38;;;0.50;;
21448;SDS011;10885;52.830;13.788;2022-07-06T19:45:43;1.08;;;0.55;;
21448;SDS011;10885;52.830;13.788;2022-07-06T19:50:45;4.10;;;0.93;;
21448;SDS011;10885;52.830;13.788;2022-07-06T19:55:51;1.88;;;0.60;;
21448;SDS011;10885;52.830;13.788;2022-07-06T20:00:53;5.47;;;0.82;;
21448;SDS011;10885;52.830;13.788;2022-07-06T20:05:56;2.67;;;0.60;;
21448;SDS011;10885;52.830;13.788;2022-07-06T20:10:59;2.63;;;0.40;;
21448;SDS011;10885;52.830;13.788;2022-07-06T20:16:01;4.07;;;0.75;;
21448;SDS011;10885;52.830;13.788;2022-07-06T20:21:04;0.93;;;0.40;;
21448;SDS011;10885;52.830;13.788;2022-07-06T20:26:07;1.08;;;0.45;;
21448;SDS011;10885;52.830;13.788;2022-07-06T20:31:09;4.20;;;0.60;;
21448;SDS011;10885;52.830;13.788;2022-07-06T20:36:12;1.20;;;0.50;;
21448;SDS011;10885;52.830;13.788;2022-07-06T20:41:14;1.00;;;0.52;;
21448;SDS011;10885;52.830;13.788;2022-07-06T20:46:17;1.95;;;0.52;;
21448;SDS011;10885;52.830;13.788;2022-07-06T20:51:19;2.97;;;0.68;;
21448;SDS011;10885;52.830;13.788;2022-07-06T20:56:22;3.22;;;0.63;;
21448;SDS011;10885;52.830;13.788;2022-07-06T21:01:24;2.20;;;0.55;;
21448;SDS011;10885;52.830;13.788;2022-07-06T21:06:27;3.08;;;0.50;;
21448;SDS011;10885;52.830;13.788;2022-07-06T21:11:30;1.40;;;0.70;;
21448;SDS011;10885;52.830;13.788;2022-07-06T21:16:32;0.95;;;0.70;;
21448;SDS011;10885;52.830;13.788;2022-07-06T21:21:35;5.72;;;0.90;;
21448;SDS011;10885;52.830;13.788;2022-07-06T21:26:37;1.65;;;0.60;;
21448;SDS011;10885;52.830;13.788;2022-07-06T21:31:43;2.17;;;0.75;;
21448;SDS011;10885;52.830;13.788;2022-07-06T21:36:46;5.25;;;0.57;;
21448;SDS011;10885;52.830;13.788;2022-07-06T21:41:49;1.92;;;0.47;;
